createdAt,value
2017-09-25T00:05:34.000Z,1015.713
2017-09-25T00:15:34.000Z,1015.662
2017-09-25T00:25:34.000Z,1015.65
2017-09-25T00:35:34.000Z,1015.554
2017-09-25T00:45:34.000Z,1015.424
2017-09-25T00:55:34.000Z,1015.322
2017-09-25T01:05:34.000Z,1015.346
2017-09-25T01:15:34.000Z,1015.283
2017-09-25T01:25:34.000Z,1015.241
2017-09-25T01:35:34.000Z,1015.199
2017-09-25T01:45:34.000Z,1015.119
2017-09-25T01:55:34.000Z,1015.056
2017-09-25T02:05:34.000Z,1014.992
2017-09-25T02:15:34.000Z,1015.013
2017-09-25T02:25:34.000Z,1015.071
2017-09-25T02:35:35.000Z,1015.047
2017-09-25T02:45:35.000Z,1014.976
2017-09-25T02:55:35.000Z,1014.987
2017-09-25T03:05:35.000Z,1014.933
2017-09-25T03:15:35.000Z,1014.883
2017-09-25T03:25:35.000Z,1014.827
2017-09-25T03:35:35.000Z,1014.841
2017-09-25T03:45:35.000Z,1014.857
2017-09-25T03:55:35.000Z,1014.816
2017-09-25T04:05:35.000Z,1014.795
2017-09-25T04:15:35.000Z,1014.769
2017-09-25T04:25:35.000Z,1014.725
2017-09-25T04:35:35.000Z,1014.689
2017-09-25T04:45:35.000Z,1014.768
2017-09-25T04:55:35.000Z,1014.783
2017-09-25T05:05:36.000Z,1014.805
2017-09-25T05:15:35.000Z,1014.858
2017-09-25T05:25:35.000Z,1014.908
2017-09-25T05:35:35.000Z,1014.961
2017-09-25T05:45:35.000Z,1014.993
2017-09-25T05:55:35.000Z,1015.024
2017-09-25T06:05:35.000Z,1015.01
2017-09-25T06:15:35.000Z,1014.998
2017-09-25T06:25:35.000Z,1014.984
2017-09-25T06:35:35.000Z,1014.936
2017-09-25T06:45:35.000Z,1014.89
2017-09-25T06:55:35.000Z,1014.94
2017-09-25T07:05:35.000Z,1015
2017-09-25T07:15:35.000Z,1015.011
2017-09-25T07:25:35.000Z,1014.957
2017-09-25T07:35:35.000Z,1015.042
2017-09-25T07:45:35.000Z,1014.983
2017-09-25T07:55:35.000Z,1014.866
2017-09-25T08:05:35.000Z,1014.889
2017-09-25T08:15:35.000Z,1014.949
2017-09-25T08:25:35.000Z,1014.962
2017-09-25T08:35:35.000Z,1014.98
2017-09-25T08:45:37.000Z,1015.051
2017-09-25T08:55:36.000Z,1015.042
2017-09-25T09:05:35.000Z,1015.03
2017-09-25T09:15:35.000Z,1014.911
2017-09-25T09:25:35.000Z,1014.924
2017-09-25T09:35:35.000Z,1014.933
2017-09-25T09:45:35.000Z,1014.843
2017-09-25T09:55:35.000Z,1014.762
2017-09-25T10:05:37.000Z,1014.737
2017-09-25T10:25:35.000Z,1014.72
2017-09-25T10:35:35.000Z,1014.748
2017-09-25T10:45:36.000Z,1014.674
2017-09-25T10:55:36.000Z,1014.682
2017-09-25T11:05:36.000Z,1014.648
2017-09-25T11:15:36.000Z,1014.617
2017-09-25T11:25:36.000Z,1014.538
2017-09-25T11:35:36.000Z,1014.46
2017-09-25T11:55:36.000Z,1014.409
2017-09-25T12:05:36.000Z,1014.323
2017-09-25T12:15:36.000Z,1014.328
2017-09-25T12:25:36.000Z,1014.34
2017-09-25T12:35:36.000Z,1014.299
2017-09-25T12:45:36.000Z,1014.328
2017-09-25T12:55:36.000Z,1014.254
2017-09-25T13:15:36.000Z,1014.2
2017-09-25T13:25:36.000Z,1014.161
2017-09-25T13:35:36.000Z,1014.146
2017-09-25T13:45:36.000Z,1014.117
2017-09-25T13:55:36.000Z,1014.035
2017-09-25T14:05:36.000Z,1014.01
2017-09-25T14:15:36.000Z,1013.957
2017-09-25T14:25:36.000Z,1013.975
2017-09-25T14:35:36.000Z,1013.949
2017-09-25T14:45:36.000Z,1014.014
2017-09-25T14:55:36.000Z,1014
2017-09-25T15:05:36.000Z,1013.973
2017-09-25T15:15:36.000Z,1013.92
2017-09-25T15:25:36.000Z,1013.909
2017-09-25T15:35:36.000Z,1013.865
2017-09-25T15:45:36.000Z,1013.826
2017-09-25T15:55:38.000Z,1013.822
2017-09-25T16:05:36.000Z,1013.808
2017-09-25T16:15:36.000Z,1013.837
2017-09-25T16:25:36.000Z,1013.826
2017-09-25T16:35:36.000Z,1013.871
2017-09-25T16:45:36.000Z,1013.956
2017-09-25T16:55:36.000Z,1014
2017-09-25T17:05:36.000Z,1014.015
2017-09-25T17:15:36.000Z,1013.956
2017-09-25T17:25:36.000Z,1014.09
2017-09-25T17:35:36.000Z,1014.07
2017-09-25T17:45:36.000Z,1014.162
2017-09-25T17:55:36.000Z,1014.21
2017-09-25T18:05:36.000Z,1014.261
2017-09-25T18:15:36.000Z,1014.28
2017-09-25T18:25:36.000Z,1014.3
2017-09-25T18:35:37.000Z,1014.312
2017-09-25T18:45:38.000Z,1014.353
2017-09-25T18:55:37.000Z,1014.358
2017-09-25T19:05:37.000Z,1014.429
2017-09-25T19:15:37.000Z,1014.502
2017-09-25T19:25:37.000Z,1014.502
2017-09-25T19:35:37.000Z,1014.569
2017-09-25T19:45:37.000Z,1014.613
2017-09-25T19:55:37.000Z,1014.522
2017-09-25T20:05:37.000Z,1014.612
2017-09-25T20:15:37.000Z,1014.595
2017-09-25T20:25:37.000Z,1014.636
2017-09-25T20:35:37.000Z,1014.638
2017-09-25T20:45:37.000Z,1014.634
2017-09-25T20:55:37.000Z,1014.638
2017-09-25T21:05:37.000Z,1014.58
2017-09-25T21:15:37.000Z,1014.549
2017-09-25T21:25:37.000Z,1014.588
2017-09-25T21:35:37.000Z,1014.609
2017-09-25T21:45:37.000Z,1014.543
2017-09-25T21:55:37.000Z,1014.504
2017-09-25T22:05:37.000Z,1014.55
2017-09-25T22:15:37.000Z,1014.562
2017-09-25T22:25:37.000Z,1014.505
2017-09-25T22:35:37.000Z,1014.519
2017-09-25T22:45:38.000Z,1014.479
2017-09-25T22:55:37.000Z,1014.465
2017-09-25T23:05:37.000Z,1014.45
2017-09-25T23:15:37.000Z,1014.435
2017-09-25T23:25:37.000Z,1014.391
2017-09-25T23:35:37.000Z,1014.309
2017-09-25T23:45:37.000Z,1014.367
2017-09-25T23:55:37.000Z,1014.357
